createdAt,value
2023-05-22T00:00:08.594Z,100502.84
2023-05-22T00:03:11.330Z,100504.72
2023-05-22T00:06:12.867Z,100503.84
2023-05-22T00:09:15.118Z,100506.56
2023-05-22T00:12:16.629Z,100503.00
2023-05-22T00:15:18.245Z,100500.28
2023-05-22T00:18:19.811Z,100493.13
2023-05-22T00:21:21.983Z,100495.03
2023-05-22T00:24:23.566Z,100491.41
2023-05-22T00:27:25.137Z,100478.84
2023-05-22T00:30:26.641Z,100489.72
2023-05-22T00:33:28.187Z,100484.28
2023-05-22T00:36:29.812Z,100482.59
2023-05-22T00:39:31.363Z,100480.72
2023-05-22T00:42:33.346Z,100473.56
2023-05-22T00:45:34.977Z,100471.69
2023-05-22T00:48:36.567Z,100477.16
2023-05-22T00:51:38.174Z,100474.59
2023-05-22T00:54:40.045Z,100469.13
2023-05-22T00:57:42.068Z,100474.59
2023-05-22T01:00:44.249Z,100469.13
2023-05-22T01:03:46.671Z,100471.03
2023-05-22T01:06:48.599Z,100466.59
2023-05-22T01:09:52.575Z,100464.72
2023-05-22T01:13:09.096Z,100456.56
2023-05-22T01:16:30.078Z,100462.00
2023-05-22T01:19:54.065Z,100454.69
2023-05-22T01:23:06.975Z,100458.59
2023-05-22T01:26:37.624Z,100463.00
2023-05-22T01:29:46.459Z,100458.59
2023-05-22T01:32:49.595Z,100452.31
2023-05-22T01:35:54.044Z,100438.84
2023-05-22T01:38:56.443Z,100436.13
2023-05-22T01:41:58.386Z,100442.63
2023-05-22T01:44:59.891Z,100442.63
2023-05-22T01:48:01.483Z,100443.47
2023-05-22T01:51:07.590Z,100450.44
2023-05-22T01:54:24.073Z,100452.31
2023-05-22T01:57:33.670Z,100444.97
2023-05-22T02:00:37.526Z,100433.41
2023-05-22T02:03:40.346Z,100436.13
2023-05-22T02:06:42.927Z,100435.28
2023-05-22T02:09:46.177Z,100425.06
2023-05-22T02:12:48.371Z,100433.25
2023-05-22T02:15:51.088Z,100426.94
2023-05-22T02:18:59.127Z,100426.09
2023-05-22T02:22:00.748Z,100424.41
2023-05-22T02:25:03.584Z,100418.09
2023-05-22T02:28:05.166Z,100418.94
2023-05-22T02:31:06.939Z,100420.81
2023-05-22T02:34:08.465Z,100423.56
2023-05-22T02:37:11.493Z,100430.69
2023-05-22T02:40:13.147Z,100423.56
2023-05-22T02:43:14.680Z,100421.66
2023-05-22T02:46:16.934Z,100422.50
2023-05-22T02:49:18.490Z,100418.94
2023-05-22T02:52:20.044Z,100418.94
2023-05-22T02:55:21.688Z,100413.50
2023-05-22T02:58:24.990Z,100411.63
2023-05-22T03:01:26.669Z,100410.78
2023-05-22T03:04:29.571Z,100405.34
2023-05-22T03:07:31.740Z,100411.63
2023-05-22T03:10:33.534Z,100408.91
2023-05-22T03:13:35.535Z,100408.91
2023-05-22T03:16:37.108Z,100403.44
2023-05-22T03:19:38.796Z,100405.34
2023-05-22T03:22:40.526Z,100402.59
2023-05-22T03:25:42.329Z,100407.22
2023-05-22T03:28:44.783Z,100409.94
2023-05-22T03:31:47.012Z,100409.06
2023-05-22T03:34:49.695Z,100407.38
2023-05-22T03:37:51.237Z,100415.38
2023-05-22T03:40:53.414Z,100413.66
2023-05-22T03:43:54.943Z,100411.78
2023-05-22T03:46:58.400Z,100410.09
2023-05-22T03:49:59.997Z,100413.88
2023-05-22T03:53:02.566Z,100411.13
2023-05-22T03:56:05.998Z,100410.09
2023-05-22T03:59:07.504Z,100413.88
2023-05-22T04:02:12.811Z,100413.88
2023-05-22T04:05:15.681Z,100410.47
2023-05-22T04:08:18.395Z,100405.00
2023-05-22T04:11:20.963Z,100405.84
2023-05-22T04:14:22.464Z,100400.56
2023-05-22T04:17:24.094Z,100408.75
2023-05-22T04:20:25.712Z,100404.16
2023-05-22T04:23:27.203Z,100409.63
2023-05-22T04:26:32.066Z,100410.63
2023-05-22T04:29:36.210Z,100407.91
2023-05-22T04:32:38.286Z,100411.66
2023-05-22T04:35:40.879Z,100417.94
2023-05-22T04:38:44.790Z,100412.66
2023-05-22T04:41:46.342Z,100408.09
2023-05-22T04:44:48.241Z,100409.09
2023-05-22T04:47:49.931Z,100406.38
2023-05-22T04:50:54.172Z,100408.09
2023-05-22T04:53:56.036Z,100409.94
2023-05-22T04:56:58.121Z,100405.53
2023-05-22T05:00:01.261Z,100400.09
2023-05-22T05:03:04.322Z,100397.38
2023-05-22T05:06:08.265Z,100399.06
2023-05-22T05:09:10.137Z,100397.19
2023-05-22T05:12:11.993Z,100392.75
2023-05-22T05:15:13.653Z,100390.88
2023-05-22T05:18:15.651Z,100396.53
2023-05-22T05:21:17.546Z,100396.53
2023-05-22T05:24:19.173Z,100396.53
2023-05-22T05:27:21.535Z,100392.09
2023-05-22T05:30:23.343Z,100391.91
2023-05-22T05:33:56.609Z,100383.91
2023-05-22T05:37:05.612Z,100390.25
2023-05-22T05:40:08.731Z,100384.78
2023-05-22T05:43:16.390Z,100387.50
2023-05-22T05:46:19.416Z,100390.25
2023-05-22T05:49:22.468Z,100388.53
2023-05-22T05:52:27.041Z,100384.78
2023-05-22T05:55:29.077Z,100392.97
2023-05-22T05:58:32.290Z,100397.53
2023-05-22T06:01:52.229Z,100391.25
2023-05-22T06:05:02.160Z,100395.69
2023-05-22T06:08:06.020Z,100393.81
2023-05-22T06:11:07.694Z,100395.69
2023-05-22T06:14:15.215Z,100393.97
2023-05-22T06:17:17.297Z,100394.81
2023-05-22T06:20:20.449Z,100394.81
2023-05-22T06:23:22.355Z,100402.13
2023-05-22T06:26:25.767Z,100393.81
2023-05-22T06:29:28.545Z,100401.97
2023-05-22T06:32:31.617Z,100399.25
2023-05-22T06:35:34.252Z,100408.25
2023-05-22T06:38:37.842Z,100402.81
2023-05-22T06:41:40.040Z,100405.53
2023-05-22T06:44:44.660Z,100415.41
2023-05-22T06:47:46.268Z,100415.41
2023-05-22T06:50:48.289Z,100413.53
2023-05-22T06:53:49.914Z,100407.06
2023-05-22T06:56:56.405Z,100412.50
2023-05-22T07:00:01.038Z,100403.28
2023-05-22T07:03:27.203Z,100414.19
2023-05-22T07:06:49.897Z,100407.91
2023-05-22T07:09:51.489Z,100410.47
2023-05-22T07:12:53.694Z,100411.31
2023-05-22T07:15:55.519Z,100414.03
2023-05-22T07:18:57.639Z,100404.81
2023-05-22T07:22:00.388Z,100407.53
2023-05-22T07:25:04.601Z,100404.81
2023-05-22T07:28:09.048Z,100402.97
2023-05-22T07:31:21.830Z,100409.25
2023-05-22T07:34:29.874Z,100405.50
2023-05-22T07:37:32.164Z,100400.88
2023-05-22T07:40:33.772Z,100399.88
2023-05-22T07:43:36.277Z,100397.31
2023-05-22T07:46:39.184Z,100391.72
2023-05-22T07:49:50.671Z,100392.56
2023-05-22T07:52:52.773Z,100400.72
2023-05-22T07:55:54.395Z,100398.84
2023-05-22T07:58:56.303Z,100391.72
2023-05-22T08:01:58.721Z,100396.97
2023-05-22T08:05:00.469Z,100406.00
2023-05-22T08:08:02.978Z,100404.13
2023-05-22T08:11:04.964Z,100399.53
2023-05-22T08:14:07.531Z,100405.81
2023-05-22T08:17:09.089Z,100404.97
2023-05-22T08:20:11.788Z,100403.94
2023-05-22T08:23:13.717Z,100402.06
2023-05-22T08:26:15.935Z,100393.03
2023-05-22T08:29:17.436Z,100388.47
2023-05-22T08:32:19.023Z,100390.16
2023-05-22T08:35:20.539Z,100398.31
2023-05-22T08:38:22.344Z,100380.09
2023-05-22T08:41:23.926Z,100382.81
2023-05-22T08:44:25.642Z,100379.25
2023-05-22T08:47:28.427Z,100379.09
2023-05-22T08:50:30.065Z,100381.97
2023-05-22T08:53:35.530Z,100382.66
2023-05-22T08:56:45.465Z,100378.22
2023-05-22T08:59:51.598Z,100371.75
2023-05-22T09:02:53.604Z,100368.00
2023-05-22T09:05:55.216Z,100371.75
2023-05-22T09:08:57.700Z,100368.81
2023-05-22T09:11:59.443Z,100362.53
2023-05-22T09:15:10.827Z,100369.50
2023-05-22T09:18:12.822Z,100365.09
2023-05-22T09:21:29.728Z,100366.78
2023-05-22T09:24:38.839Z,100364.91
2023-05-22T09:27:45.839Z,100358.44
2023-05-22T09:30:51.941Z,100355.72
2023-05-22T09:33:53.955Z,100353.00
2023-05-22T09:37:03.240Z,100354.69
2023-05-22T09:40:06.951Z,100354.69
2023-05-22T09:43:11.913Z,100350.06
2023-05-22T09:46:16.590Z,100351.78
2023-05-22T09:49:18.224Z,100354.69
2023-05-22T09:52:21.520Z,100349.22
2023-05-22T09:55:23.875Z,100348.22
2023-05-22T09:58:27.148Z,100350.94
2023-05-22T10:01:28.965Z,100352.63
2023-05-22T10:04:33.082Z,100348.84
2023-05-22T10:07:40.060Z,100346.13
2023-05-22T10:10:46.748Z,100343.41
2023-05-22T10:13:50.036Z,100341.72
2023-05-22T10:16:53.275Z,100346.13
2023-05-22T10:19:56.563Z,100339.84
2023-05-22T10:22:58.711Z,100347.19
2023-05-22T10:26:00.237Z,100331.66
2023-05-22T10:29:14.699Z,100329.63
2023-05-22T10:32:30.422Z,100318.72
2023-05-22T10:35:41.076Z,100324.00
2023-05-22T10:39:01.075Z,100324.66
2023-05-22T10:42:02.839Z,100306.59
2023-05-22T10:45:07.722Z,100311.72
2023-05-22T10:48:11.699Z,100310.72
2023-05-22T10:51:14.865Z,100306.94
2023-05-22T10:54:16.467Z,100307.78
2023-05-22T10:57:18.723Z,100303.84
2023-05-22T11:00:24.407Z,100305.38
2023-05-22T11:03:55.779Z,100303.31
2023-05-22T11:07:05.316Z,100308.75
2023-05-22T11:10:07.331Z,100300.59
2023-05-22T11:13:12.198Z,100303.16
2023-05-22T11:16:15.960Z,100297.69
2023-05-22T11:19:23.894Z,100295.13
2023-05-22T11:22:39.748Z,100289.50
2023-05-22T11:25:41.944Z,100292.41
2023-05-22T11:28:44.065Z,100289.69
2023-05-22T11:31:46.258Z,100287.81
2023-05-22T11:34:50.358Z,100283.19
2023-05-22T11:37:53.166Z,100280.47
2023-05-22T11:40:54.677Z,100276.91
2023-05-22T11:43:56.182Z,100276.72
2023-05-22T11:46:57.808Z,100274.84
2023-05-22T11:50:01.019Z,100274.69
2023-05-22T11:53:03.819Z,100272.78
2023-05-22T11:56:06.762Z,100270.75
2023-05-22T11:59:08.266Z,100263.41
2023-05-22T12:02:09.780Z,100264.25
2023-05-22T12:05:11.931Z,100258.41
2023-05-22T12:08:13.554Z,100255.53
2023-05-22T12:11:15.209Z,100256.38
2023-05-22T12:14:16.821Z,100258.03
2023-05-22T12:17:18.427Z,100254.31
2023-05-22T12:20:19.963Z,100258.03
2023-05-22T12:23:28.424Z,100249.53
2023-05-22T12:26:30.415Z,100243.19
2023-05-22T12:29:32.156Z,100246.78
2023-05-22T12:32:33.695Z,100249.53
2023-05-22T12:35:35.207Z,100250.38
2023-05-22T12:38:37.779Z,100243.88
2023-05-22T12:41:39.615Z,100245.56
2023-05-22T12:44:41.326Z,100246.41
2023-05-22T12:47:43.128Z,100240.13
2023-05-22T12:50:44.901Z,100238.25
2023-05-22T12:53:46.411Z,100240.97
2023-05-22T12:56:47.909Z,100235.31
2023-05-22T12:59:49.491Z,100236.19
2023-05-22T13:02:51.094Z,100229.69
2023-05-22T13:05:52.640Z,100230.53
2023-05-22T13:08:54.133Z,100232.25
2023-05-22T13:11:55.745Z,100228.47
2023-05-22T13:14:57.417Z,100226.59
2023-05-22T13:17:59.220Z,100224.53
2023-05-22T13:21:00.875Z,100217.19
2023-05-22T13:24:02.524Z,100218.03
2023-05-22T13:27:04.167Z,100217.00
2023-05-22T13:30:06.889Z,100211.34
2023-05-22T13:33:08.466Z,100199.44
2023-05-22T13:36:10.160Z,100207.41
2023-05-22T13:39:12.215Z,100194.66
2023-05-22T13:42:13.780Z,100201.59
2023-05-22T13:45:15.316Z,100187.97
2023-05-22T13:48:16.846Z,100194.06
2023-05-22T13:51:18.357Z,100183.16
2023-05-22T13:54:19.879Z,100176.69
2023-05-22T14:00:22.847Z,100178.19
2023-05-22T14:03:24.411Z,100166.22
2023-05-22T14:06:26.000Z,100164.34
2023-05-22T14:09:27.643Z,100173.41
2023-05-22T14:12:29.254Z,100169.63
2023-05-22T14:15:30.803Z,100160.59
2023-05-22T14:18:32.373Z,100160.38
2023-05-22T14:21:34.034Z,100162.28
2023-05-22T14:24:35.730Z,100164.81
2023-05-22T14:27:37.285Z,100157.50
2023-05-22T14:30:39.063Z,100145.53
2023-05-22T14:33:40.579Z,100148.25
2023-05-22T14:36:42.743Z,100160.66
2023-05-22T14:39:44.313Z,100157.94
2023-05-22T14:42:45.941Z,100152.50
2023-05-22T14:45:47.447Z,100153.34
2023-05-22T14:48:48.986Z,100165.78
2023-05-22T14:51:50.575Z,100152.97
2023-05-22T14:54:52.192Z,100153.81
2023-05-22T14:57:54.262Z,100151.75
2023-05-22T15:00:55.840Z,100155.13
2023-05-22T15:03:57.379Z,100159.38
2023-05-22T15:06:58.884Z,100151.19
2023-05-22T15:10:00.816Z,100145.34
2023-05-22T15:13:02.451Z,100139.88
2023-05-22T15:16:04.205Z,100126.25
2023-05-22T15:19:05.826Z,100122.47
2023-05-22T15:22:19.392Z,100124.34
2023-05-22T15:25:21.630Z,100123.53
2023-05-22T15:28:23.221Z,100131.69
2023-05-22T15:31:24.749Z,100141.56
2023-05-22T15:34:26.294Z,100149.75
2023-05-22T15:37:32.172Z,100154.19
2023-05-22T15:40:34.108Z,100163.22
2023-05-22T15:43:35.898Z,100178.53
2023-05-22T15:46:38.682Z,100177.50
2023-05-22T15:49:41.068Z,100179.19
2023-05-22T15:52:42.585Z,100182.75
2023-05-22T15:55:44.081Z,100192.66
2023-05-22T15:58:45.607Z,100192.66
2023-05-22T16:01:47.276Z,100187.19
2023-05-22T16:04:49.226Z,100180.88
2023-05-22T16:07:50.811Z,100181.75
2023-05-22T16:10:52.360Z,100186.16
2023-05-22T16:13:54.237Z,100183.59
2023-05-22T16:16:56.389Z,100189.94
2023-05-22T16:19:57.917Z,100196.22
2023-05-22T16:22:59.433Z,100203.56
2023-05-22T16:26:00.970Z,100200.19
2023-05-22T16:29:02.514Z,100204.59
2023-05-22T16:32:04.472Z,100206.47
2023-05-22T16:35:06.331Z,100212.97
2023-05-22T16:38:11.666Z,100212.09
2023-05-22T16:41:13.196Z,100219.44
2023-05-22T16:44:14.732Z,100233.09
2023-05-22T16:47:16.345Z,100228.47
2023-05-22T16:50:17.964Z,100230.38
2023-05-22T16:53:19.720Z,100241.50
2023-05-22T16:56:21.229Z,100242.31
2023-05-22T16:59:22.781Z,100242.31
2023-05-22T17:02:24.470Z,100245.91
2023-05-22T17:05:26.016Z,100238.56
2023-05-22T17:08:28.361Z,100228.69
2023-05-22T17:11:30.038Z,100230.38
2023-05-22T17:14:33.429Z,100217.78
2023-05-22T17:17:34.957Z,100212.09
2023-05-22T17:20:36.485Z,100203.09
2023-05-22T17:23:38.748Z,100207.53
2023-05-22T17:26:41.007Z,100200.19
2023-05-22T17:29:42.529Z,100197.44
2023-05-22T17:32:45.082Z,100199.34
2023-05-22T17:35:47.382Z,100194.72
2023-05-22T17:38:49.260Z,100197.06
2023-05-22T17:41:51.300Z,100183.25
2023-05-22T17:44:52.815Z,100173.34
2023-05-22T17:47:54.320Z,100167.72
2023-05-22T17:50:55.954Z,100158.69
2023-05-22T17:53:58.927Z,100149.50
2023-05-22T17:57:00.834Z,100144.88
2023-05-22T18:00:05.226Z,100153.72
2023-05-22T18:03:13.369Z,100145.53
2023-05-22T18:06:15.094Z,100147.22
2023-05-22T18:09:16.713Z,100141.75
2023-05-22T18:15:25.939Z,100143.47
2023-05-22T18:18:30.113Z,100148.91
2023-05-22T18:21:32.173Z,100145.16
2023-05-22T18:24:36.388Z,100159.63
2023-05-22T18:27:37.992Z,100163.22
2023-05-22T18:30:39.790Z,100164.91
2023-05-22T18:33:44.726Z,100180.22
2023-05-22T18:36:46.205Z,100194.75
2023-05-22T18:39:47.760Z,100210.91
2023-05-22T18:42:49.284Z,100227.09
2023-05-22T18:45:50.898Z,100233.41
2023-05-22T18:48:52.487Z,100250.63
2023-05-22T18:51:53.975Z,100264.47
2023-05-22T18:54:55.675Z,100284.41
2023-05-22T18:57:57.237Z,100290.53
2023-05-22T19:00:58.892Z,100299.56
2023-05-22T19:04:00.526Z,100307.75
2023-05-22T19:07:03.290Z,100310.28
2023-05-22T19:10:07.937Z,100328.53
2023-05-22T19:13:09.741Z,100324.97
2023-05-22T19:16:11.345Z,100353.09
2023-05-22T19:19:14.558Z,100361.28
2023-05-22T19:22:18.141Z,100364.22
2023-05-22T19:25:19.955Z,100385.00
2023-05-22T19:28:21.699Z,100384.16
2023-05-22T19:31:23.201Z,100384.16
2023-05-22T19:34:24.777Z,100391.31
2023-05-22T19:37:26.289Z,100390.47
2023-05-22T19:40:27.784Z,100390.47
2023-05-22T19:43:31.168Z,100394.03
2023-05-22T19:46:32.810Z,100396.78
2023-05-22T19:49:36.997Z,100400.53
2023-05-22T19:52:38.753Z,100406.84
2023-05-22T19:55:40.248Z,100407.88
2023-05-22T19:58:41.839Z,100410.63
2023-05-22T20:01:43.447Z,100403.28
2023-05-22T20:04:48.230Z,100391.53
2023-05-22T20:07:49.974Z,100383.69
2023-05-22T20:10:51.528Z,100381.81
2023-05-22T20:13:54.390Z,100384.72
2023-05-22T20:16:56.204Z,100381.16
2023-05-22T20:19:58.743Z,100390.34
2023-05-22T20:23:00.307Z,100397.69
2023-05-22T20:26:01.872Z,100397.03
2023-05-22T20:29:03.421Z,100402.50
2023-05-22T20:32:05.305Z,100401.66
2023-05-22T20:35:07.283Z,100399.97
2023-05-22T20:38:09.780Z,100392.78
2023-05-22T20:41:12.805Z,100391.94
2023-05-22T20:44:16.216Z,100381.25
2023-05-22T20:47:17.752Z,100386.69
2023-05-22T20:50:19.343Z,100391.28
2023-05-22T20:53:20.950Z,100386.00
2023-05-22T20:56:22.731Z,100385.16
2023-05-22T20:59:24.248Z,100381.75
2023-05-22T21:02:26.198Z,100383.66
2023-05-22T21:05:27.808Z,100393.50
2023-05-22T21:08:29.301Z,100390.97
2023-05-22T21:11:30.822Z,100380.03
2023-05-22T21:14:32.459Z,100386.53
2023-05-22T21:17:34.237Z,100393.03
2023-05-22T21:20:35.734Z,100393.03
2023-05-22T21:23:37.238Z,100399.53
2023-05-22T21:26:38.944Z,100395.94
2023-05-22T21:29:40.563Z,100386.09
2023-05-22T21:32:43.034Z,100396.13
2023-05-22T21:35:44.602Z,100391.72
2023-05-22T21:38:46.534Z,100381.63
2023-05-22T21:41:49.860Z,100382.47
2023-05-22T21:44:51.599Z,100374.50
2023-05-22T21:47:53.144Z,100370.94
2023-05-22T21:50:54.773Z,100370.94
2023-05-22T21:53:56.318Z,100371.78
2023-05-22T21:56:57.894Z,100361.88
2023-05-22T21:59:59.822Z,100342.78
2023-05-22T22:03:01.737Z,100348.22
2023-05-22T22:06:04.052Z,100346.56
2023-05-22T22:09:05.725Z,100360.19
2023-05-22T22:12:07.609Z,100362.06
2023-05-22T22:15:12.055Z,100362.91
2023-05-22T22:18:15.751Z,100368.38
2023-05-22T22:21:17.415Z,100363.97
2023-05-22T22:24:19.012Z,100369.41
2023-05-22T22:27:20.787Z,100361.22
2023-05-22T22:30:22.458Z,100350.50
2023-05-22T22:33:24.664Z,100357.84
2023-05-22T22:36:26.280Z,100358.69
2023-05-22T22:39:27.751Z,100348.81
2023-05-22T22:42:29.282Z,100337.91
2023-05-22T22:45:31.267Z,100335.19
2023-05-22T22:48:33.726Z,100327.84
2023-05-22T22:51:35.479Z,100329.72
2023-05-22T22:54:37.086Z,100333.28
2023-05-22T22:57:38.908Z,100321.53
2023-05-22T23:00:40.418Z,100317.09
2023-05-22T23:03:42.200Z,100315.22
2023-05-22T23:06:43.813Z,100316.25
2023-05-22T23:09:45.309Z,100308.06
2023-05-22T23:12:48.276Z,100315.41
2023-05-22T23:18:51.531Z,100320.03
2023-05-22T23:21:53.538Z,100304.66
2023-05-22T23:24:55.085Z,100308.25
2023-05-22T23:27:56.577Z,100308.44
2023-05-22T23:30:58.581Z,100306.56
2023-05-22T23:34:00.142Z,100319.34
2023-05-22T23:37:01.676Z,100312.19
2023-05-22T23:40:04.946Z,100309.47
2023-05-22T23:43:06.513Z,100304.88
2023-05-22T23:46:08.030Z,100300.44
2023-05-22T23:49:09.540Z,100296.88
2023-05-22T23:52:12.229Z,100298.56
2023-05-22T23:55:13.951Z,100296.03
2023-05-22T23:58:15.973Z,100299.59
